Time;durP1;ratioP1;P1;durP2;ratioP2;P2;SDS_P1;SDS_P2;PMS_P1;PMS_P2;Temp;Humidity;BMP_temperature;BMP_pressure;BME280_temperature;BME280_humidity;BME280_pressure;Samples;Min_cycle;Max_cycle;Signal;HPM_P1;HPM_P2
2021/01/28 09:29:53;;;;;;;3.78;2.38;;;4.70;99.90;;;;;;5089807;27;21188;-75
2021/01/28 09:32:22;;;;;;;3.67;3.33;;;4.70;99.90;;;;;;5084560;28;20490;-74
2021/01/28 09:35:14;;;;;;;2.75;2.42;;;5.00;99.90;;;;;;5109095;28;20166;-75
2021/01/28 09:38:00;;;;;;;2.13;1.70;;;5.20;99.90;;;;;;5099174;28;20211;-75
2021/01/28 09:40:36;;;;;;;2.25;2.05;;;5.50;99.90;;;;;;5088537;28;20206;-75
2021/01/28 09:43:25;;;;;;;2.83;2.20;;;5.80;99.90;;;;;;5088853;28;20725;-75
2021/01/28 09:46:19;;;;;;;3.20;2.70;;;6.00;99.90;;;;;;5095652;28;20189;-75
2021/01/28 09:48:50;;;;;;;2.17;1.98;;;6.20;99.90;;;;;;5108258;28;20206;-76
2021/01/28 09:51:34;;;;;;;5.00;2.33;;;6.40;99.90;;;;;;5109417;28;20166;-75
2021/01/28 09:54:14;;;;;;;2.78;1.98;;;6.50;99.90;;;;;;5109636;28;20172;-75
2021/01/28 09:56:41;;;;;;;2.15;1.95;;;6.60;99.90;;;;;;5107660;28;20163;-75
2021/01/28 09:59:08;;;;;;;5.85;1.95;;;6.70;99.90;;;;;;5108479;28;20187;-75
2021/01/28 10:01:34;;;;;;;2.47;2.15;;;6.70;99.90;;;;;;5108915;28;20175;-75
2021/01/28 10:03:59;;;;;;;4.37;2.57;;;6.80;99.90;;;;;;5091431;28;20164;-75
2021/01/28 10:06:25;;;;;;;2.87;2.60;;;6.80;99.90;;;;;;5088304;28;20691;-76
2021/01/28 10:08:51;;;;;;;3.17;1.90;;;6.80;99.90;;;;;;5087862;28;20640;-75
2021/01/28 10:11:17;;;;;;;2.13;1.93;;;6.90;99.90;;;;;;5088025;28;20156;-75
2021/01/28 10:13:43;;;;;;;2.00;1.53;;;6.90;99.90;;;;;;5088422;28;20593;-73
2021/01/28 10:16:09;;;;;;;3.10;1.52;;;6.90;99.90;;;;;;5088057;28;20554;-73
2021/01/28 10:18:35;;;;;;;3.53;2.30;;;7.00;99.90;;;;;;5087717;28;20191;-73
2021/01/28 10:21:01;;;;;;;2.10;1.77;;;6.90;99.90;;;;;;5086647;28;20221;-74
2021/01/28 10:23:27;;;;;;;2.03;1.87;;;7.00;99.90;;;;;;5088039;28;20532;-74
2021/01/28 10:25:54;;;;;;;2.15;1.83;;;7.00;99.90;;;;;;5086619;28;20570;-74
2021/01/28 10:28:20;;;;;;;2.30;1.65;;;7.10;99.90;;;;;;5086161;28;20246;-73
2021/01/28 10:30:46;;;;;;;2.17;1.70;;;7.10;99.90;;;;;;5090318;28;20163;-73
2021/01/28 10:33:14;;;;;;;2.72;1.33;;;7.20;99.90;;;;;;5087976;28;20239;-74
2021/01/28 10:35:42;;;;;;;2.15;1.75;;;7.30;99.90;;;;;;5087861;28;20628;-73
2021/01/28 10:38:18;;;;;;;1.80;1.40;;;7.30;99.90;;;;;;5103674;28;20198;-74
2021/01/28 10:40:44;;;;;;;3.00;1.40;;;7.30;99.90;;;;;;5097376;28;20719;-74
2021/01/28 10:43:10;;;;;;;2.17;1.75;;;7.40;99.90;;;;;;5094989;28;20557;-73
2021/01/28 10:45:38;;;;;;;2.38;1.23;;;7.40;99.90;;;;;;5094311;28;20167;-74
2021/01/28 10:48:05;;;;;;;2.90;1.70;;;7.40;99.90;;;;;;5092445;28;20290;-74
2021/01/28 10:50:33;;;;;;;1.50;1.20;;;7.40;99.90;;;;;;5092614;28;20176;-74
2021/01/28 10:53:00;;;;;;;1.67;1.35;;;7.50;99.90;;;;;;5094251;28;20568;-74
2021/01/28 10:55:29;;;;;;;4.45;1.73;;;7.50;99.90;;;;;;5094099;28;20258;-74
2021/01/28 10:57:55;;;;;;;1.30;1.02;;;7.50;99.90;;;;;;5093630;28;20194;-74
2021/01/28 11:00:22;;;;;;;1.92;1.10;;;7.60;99.90;;;;;;5094324;28;20160;-74
2021/01/28 11:02:48;;;;;;;2.28;1.48;;;7.60;99.90;;;;;;5094044;28;20195;-74
2021/01/28 11:05:21;;;;;;;2.65;1.45;;;7.60;99.90;;;;;;5093876;28;20169;-74
2021/01/28 11:08:12;;;;;;;1.63;1.25;;;7.70;99.90;;;;;;5094465;28;20241;-73
2021/01/28 11:10:38;;;;;;;1.57;1.20;;;7.70;99.90;;;;;;5093808;28;20635;-74
2021/01/28 11:13:04;;;;;;;3.10;1.40;;;7.80;99.90;;;;;;5093981;28;21179;-73
2021/01/28 11:15:33;;;;;;;1.45;1.20;;;7.80;99.90;;;;;;5093769;28;20160;-74
2021/01/28 11:18:00;;;;;;;1.60;1.20;;;7.80;99.90;;;;;;5092299;28;20213;-74
2021/01/28 11:20:26;;;;;;;1.83;1.10;;;7.90;99.90;;;;;;5093617;28;20167;-74
2021/01/28 11:22:51;;;;;;;2.63;1.40;;;7.90;99.90;;;;;;5093412;28;20179;-74
2021/01/28 11:25:21;;;;;;;3.33;1.90;;;8.00;99.90;;;;;;5093575;28;20588;-74
2021/01/28 11:27:48;;;;;;;1.85;1.33;;;8.00;99.90;;;;;;5093060;28;20199;-74
2021/01/28 11:30:15;;;;;;;2.90;1.65;;;8.10;99.90;;;;;;5093502;28;20183;-73
2021/01/28 11:32:41;;;;;;;1.90;1.70;;;8.20;99.90;;;;;;5092394;28;20225;-73
2021/01/28 11:35:08;;;;;;;2.07;1.53;;;8.30;99.90;;;;;;5093464;28;20526;-75
2021/01/28 11:37:34;;;;;;;5.95;2.28;;;8.40;99.90;;;;;;5080394;28;20688;-75
2021/01/28 11:40:00;;;;;;;1.77;1.23;;;8.50;99.90;;;;;;5072853;28;20629;-73
2021/01/28 11:42:26;;;;;;;2.33;1.27;;;8.50;99.90;;;;;;5072875;28;20169;-74
2021/01/28 11:44:52;;;;;;;2.70;1.40;;;8.50;99.90;;;;;;5073669;28;20164;-73
2021/01/28 11:47:18;;;;;;;2.67;1.30;;;8.60;99.90;;;;;;5072778;28;20747;-74
2021/01/28 11:49:43;;;;;;;1.53;1.40;;;8.60;99.90;;;;;;5072501;28;20290;-74
2021/01/28 11:52:09;;;;;;;1.50;1.10;;;8.70;99.90;;;;;;5070586;28;20168;-75
2021/01/28 11:54:35;;;;;;;1.20;1.03;;;8.70;99.90;;;;;;5071528;28;20621;-75
2021/01/28 11:57:00;;;;;;;1.40;1.20;;;8.80;99.90;;;;;;5071263;28;20633;-74
2021/01/28 11:59:26;;;;;;;1.93;1.30;;;8.80;99.90;;;;;;5072229;28;20550;-75
2021/01/28 12:01:52;;;;;;;1.60;1.50;;;8.80;99.90;;;;;;5072403;28;20574;-74
2021/01/28 12:04:18;;;;;;;1.40;1.00;;;8.80;99.90;;;;;;5072635;28;20169;-75
2021/01/28 12:06:44;;;;;;;1.37;1.20;;;8.90;99.90;;;;;;5072252;28;20172;-75
2021/01/28 12:09:10;;;;;;;2.08;1.75;;;8.90;99.90;;;;;;5072095;28;21065;-76
2021/01/28 12:11:36;;;;;;;1.50;1.10;;;8.90;99.90;;;;;;5072296;28;20167;-76
2021/01/28 12:14:02;;;;;;;1.73;1.40;;;8.90;99.90;;;;;;5072335;28;20605;-75
2021/01/28 12:16:28;;;;;;;1.63;1.52;;;8.90;99.90;;;;;;5072435;28;20601;-75
2021/01/28 12:18:54;;;;;;;1.73;0.90;;;8.90;99.90;;;;;;5071811;28;20223;-75
2021/01/28 12:21:20;;;;;;;1.60;1.10;;;9.00;99.90;;;;;;5073881;28;20270;-75
2021/01/28 12:23:46;;;;;;;2.00;1.47;;;9.00;99.90;;;;;;5072036;28;20568;-76
2021/01/28 12:26:12;;;;;;;2.93;1.20;;;9.00;99.90;;;;;;5070978;28;20620;-76
2021/01/28 12:28:38;;;;;;;1.52;1.42;;;9.00;99.90;;;;;;5071355;28;20211;-75
2021/01/28 12:31:04;;;;;;;1.40;1.20;;;9.00;99.90;;;;;;5072129;28;20598;-76
2021/01/28 12:33:30;;;;;;;2.57;1.50;;;9.00;99.90;;;;;;5071890;28;20203;-75
2021/01/28 12:35:56;;;;;;;3.55;3.25;;;9.10;99.90;;;;;;5070469;28;20247;-75
2021/01/28 12:38:22;;;;;;;2.90;2.30;;;9.10;99.90;;;;;;5089326;28;20192;-75
2021/01/28 12:40:48;;;;;;;1.80;1.70;;;9.10;99.90;;;;;;5092309;28;20529;-76
2021/01/28 12:43:14;;;;;;;1.70;1.47;;;9.20;99.90;;;;;;5091801;28;21120;-76
2021/01/28 12:45:45;;;;;;;1.92;1.40;;;9.20;99.90;;;;;;5092146;28;20175;-76
2021/01/28 12:48:29;;;;;;;1.65;1.20;;;9.20;99.90;;;;;;5091412;28;20278;-75
2021/01/28 12:51:21;;;;;;;2.03;1.80;;;9.30;99.90;;;;;;5088770;28;20364;-76
2021/01/28 12:53:47;;;;;;;2.00;1.63;;;9.30;99.90;;;;;;5090611;28;20160;-75
2021/01/28 12:56:13;;;;;;;1.57;1.00;;;9.40;99.90;;;;;;5090839;28;20168;-75
2021/01/28 12:58:39;;;;;;;1.30;1.10;;;9.40;99.90;;;;;;5091473;28;20620;-76
2021/01/28 13:01:05;;;;;;;1.20;1.10;;;9.50;99.90;;;;;;5091814;28;20202;-76
2021/01/28 13:03:31;;;;;;;1.43;1.23;;;9.40;99.90;;;;;;5091398;28;20167;-76
2021/01/28 13:05:56;;;;;;;1.35;1.20;;;9.50;99.90;;;;;;5090539;28;20574;-76
2021/01/28 13:08:23;;;;;;;1.57;1.30;;;9.50;99.90;;;;;;5091027;28;20195;-77
2021/01/28 13:10:49;;;;;;;2.30;1.75;;;9.50;99.90;;;;;;5090280;28;20574;-76
2021/01/28 13:13:15;;;;;;;1.90;1.17;;;9.60;99.90;;;;;;5091449;28;20171;-76
2021/01/28 13:15:41;;;;;;;1.30;1.20;;;9.60;99.90;;;;;;5091691;28;20589;-77
2021/01/28 13:18:07;;;;;;;1.50;1.33;;;9.60;99.90;;;;;;5091023;28;20192;-77
2021/01/28 13:20:33;;;;;;;1.88;1.40;;;9.70;99.90;;;;;;5091428;28;20167;-76
2021/01/28 13:22:59;;;;;;;2.75;1.13;;;9.70;99.90;;;;;;5090282;28;20178;-77
2021/01/28 13:25:25;;;;;;;1.63;1.52;;;9.70;99.90;;;;;;5090060;28;20171;-76
2021/01/28 13:27:52;;;;;;;1.60;1.25;;;9.70;99.90;;;;;;5072810;28;20304;-76
2021/01/28 13:30:19;;;;;;;2.63;1.10;;;9.70;99.90;;;;;;5091369;28;20191;-76
2021/01/28 13:32:45;;;;;;;2.90;1.88;;;9.70;99.90;;;;;;5092161;28;20535;-76
2021/01/28 13:35:19;;;;;;;2.08;1.88;;;9.70;99.90;;;;;;5096591;28;20187;-77
2021/01/28 13:37:57;;;;;;;3.53;2.60;;;9.70;99.90;;;;;;5076532;28;20200;-77
2021/01/28 13:40:28;;;;;;;3.38;2.30;;;9.70;99.90;;;;;;5070932;28;20172;-76
2021/01/28 13:42:55;;;;;;;3.55;3.25;;;9.70;99.90;;;;;;5071021;28;20206;-76
2021/01/28 13:45:34;;;;;;;2.63;2.42;;;9.70;99.90;;;;;;5070925;28;20176;-76
2021/01/28 13:48:03;;;;;;;2.97;2.67;;;9.80;99.90;;;;;;5070599;28;20195;-77
2021/01/28 13:50:33;;;;;;;2.58;2.08;;;9.80;99.90;;;;;;5070835;28;20533;-77
2021/01/28 13:53:00;;;;;;;2.70;1.80;;;9.80;99.90;;;;;;5071089;28;20528;-77
2021/01/28 13:55:25;;;;;;;2.78;1.95;;;9.80;99.90;;;;;;5071483;28;20168;-76
2021/01/28 13:57:52;;;;;;;3.83;1.97;;;9.80;99.90;;;;;;5072943;28;20943;-76
2021/01/28 14:00:20;;;;;;;3.60;3.00;;;9.90;99.90;;;;;;5066577;28;20584;-76
2021/01/28 14:02:50;;;;;;;4.00;3.35;;;9.90;99.90;;;;;;5049780;28;20165;-76
2021/01/28 14:05:21;;;;;;;5.30;4.25;;;9.90;99.90;;;;;;5060172;28;20179;-76
2021/01/28 14:07:47;;;;;;;5.60;4.20;;;9.90;99.90;;;;;;5070980;28;20202;-77
2021/01/28 14:10:18;;;;;;;4.10;3.20;;;9.90;99.90;;;;;;5070749;28;20168;-76
2021/01/28 14:12:44;;;;;;;3.45;2.97;;;9.90;99.90;;;;;;5071029;28;20164;-76
2021/01/28 14:15:13;;;;;;;3.53;3.13;;;10.00;99.90;;;;;;5071296;28;20169;-76
2021/01/28 14:17:39;;;;;;;4.10;2.95;;;10.00;99.90;;;;;;5074924;28;20251;-77
2021/01/28 14:20:06;;;;;;;3.73;2.87;;;10.00;99.90;;;;;;5073983;28;20259;-77
2021/01/28 14:22:32;;;;;;;2.88;2.35;;;10.00;99.90;;;;;;5074527;28;20177;-77
2021/01/28 14:24:58;;;;;;;3.50;3.20;;;10.00;99.90;;;;;;5074249;28;20243;-77
2021/01/28 14:27:24;;;;;;;2.80;2.50;;;10.10;99.90;;;;;;5074356;28;20251;-77
2021/01/28 14:29:50;;;;;;;2.97;2.77;;;10.10;99.90;;;;;;5072885;28;20234;-77
2021/01/28 14:32:17;;;;;;;3.33;3.05;;;10.10;99.90;;;;;;5074288;28;20563;-77
2021/01/28 14:34:43;;;;;;;3.80;3.50;;;10.10;99.90;;;;;;5074179;28;20169;-77
2021/01/28 14:37:08;;;;;;;3.30;3.00;;;10.10;99.90;;;;;;5081847;28;20170;-77
2021/01/28 14:39:34;;;;;;;2.70;2.50;;;10.10;99.90;;;;;;5092759;28;20203;-76
2021/01/28 14:42:00;;;;;;;2.53;2.33;;;10.10;99.90;;;;;;5094529;28;20199;-76
2021/01/28 14:44:26;;;;;;;2.28;2.17;;;10.10;99.90;;;;;;5094615;28;20595;-77
2021/01/28 14:46:52;;;;;;;2.47;2.27;;;10.10;99.90;;;;;;5094264;28;20337;-77
2021/01/28 14:49:18;;;;;;;2.20;1.80;;;10.00;99.90;;;;;;5095434;28;20669;-76
2021/01/28 14:51:44;;;;;;;3.30;2.00;;;10.00;99.90;;;;;;5094103;28;20664;-76
2021/01/28 14:54:10;;;;;;;2.90;2.70;;;10.00;99.90;;;;;;5094193;28;21166;-76
2021/01/28 14:56:44;;;;;;;2.10;1.90;;;10.00;99.90;;;;;;5094141;28;20186;-76
2021/01/28 14:59:10;;;;;;;5.13;2.35;;;10.00;99.90;;;;;;5093461;28;20207;-76
2021/01/28 15:01:36;;;;;;;2.58;2.38;;;10.00;99.90;;;;;;5094023;28;20164;-77
2021/01/28 15:04:02;;;;;;;3.10;1.93;;;10.00;99.90;;;;;;5093848;28;20160;-77
2021/01/28 15:06:28;;;;;;;2.20;2.00;;;10.00;99.90;;;;;;5073400;28;20159;-77
2021/01/28 15:08:54;;;;;;;2.58;1.77;;;10.00;99.90;;;;;;5073157;28;20714;-76
2021/01/28 15:11:21;;;;;;;2.50;1.73;;;10.00;99.90;;;;;;5073322;28;20528;-76
2021/01/28 15:13:52;;;;;;;2.15;1.95;;;10.00;99.90;;;;;;5069211;28;20173;-76
2021/01/28 15:16:19;;;;;;;2.80;2.30;;;10.00;99.90;;;;;;5053409;28;20205;-76
2021/01/28 15:18:45;;;;;;;2.33;2.13;;;10.00;99.90;;;;;;5052862;28;20618;-76
2021/01/28 15:21:10;;;;;;;4.60;2.27;;;10.00;99.90;;;;;;5054768;28;20177;-77
2021/01/28 15:23:36;;;;;;;3.27;2.97;;;10.00;99.90;;;;;;5069004;28;20624;-77
2021/01/28 15:26:02;;;;;;;4.63;3.07;;;10.00;99.90;;;;;;5075107;28;20264;-76
2021/01/28 15:28:27;;;;;;;5.63;4.00;;;10.00;99.90;;;;;;5071919;28;20239;-77
2021/01/28 15:30:53;;;;;;;6.13;5.53;;;10.00;99.90;;;;;;5073017;28;20802;-76
2021/01/28 15:33:19;;;;;;;5.57;5.07;;;10.00;99.90;;;;;;5073579;28;20172;-76
2021/01/28 15:35:45;;;;;;;4.80;3.90;;;10.00;99.90;;;;;;5073514;28;20581;-76
2021/01/28 15:38:12;;;;;;;4.43;4.03;;;10.00;99.90;;;;;;5088095;28;20277;-76
2021/01/28 15:40:38;;;;;;;3.40;2.97;;;10.00;99.90;;;;;;5078449;28;20632;-76
2021/01/28 15:43:04;;;;;;;3.90;3.27;;;10.00;99.90;;;;;;5073300;28;20168;-76
2021/01/28 15:45:30;;;;;;;4.20;3.90;;;10.00;99.90;;;;;;5073091;28;20574;-76
2021/01/28 15:47:55;;;;;;;4.70;4.23;;;10.00;99.90;;;;;;5072338;28;20195;-76
2021/01/28 15:50:22;;;;;;;4.40;4.00;;;10.00;99.90;;;;;;5073016;28;20706;-76
2021/01/28 15:52:48;;;;;;;3.60;2.88;;;10.00;99.90;;;;;;5088654;28;20172;-76
2021/01/28 15:55:15;;;;;;;3.17;2.88;;;10.00;99.90;;;;;;5072999;28;20176;-77
2021/01/28 15:57:41;;;;;;;2.97;2.28;;;10.00;99.90;;;;;;5072412;28;20172;-77
2021/01/28 16:00:08;;;;;;;2.03;1.52;;;9.90;99.90;;;;;;5073091;28;20157;-81
2021/01/28 16:02:34;;;;;;;2.47;2.28;;;9.90;99.90;;;;;;5075490;28;20178;-80
2021/01/28 16:05:00;;;;;;;2.25;1.98;;;9.80;99.90;;;;;;5072587;28;20183;-77
2021/01/28 16:07:26;;;;;;;1.92;1.48;;;9.70;99.90;;;;;;5071956;28;20169;-76
2021/01/28 16:09:52;;;;;;;1.93;1.10;;;9.70;99.90;;;;;;5072148;28;20179;-77
2021/01/28 16:12:18;;;;;;;2.27;1.90;;;9.70;99.90;;;;;;5072310;28;20172;-76
2021/01/28 16:14:44;;;;;;;2.07;1.63;;;9.60;99.90;;;;;;5057899;28;20698;-77
2021/01/28 16:17:11;;;;;;;2.73;1.53;;;9.60;99.90;;;;;;5052188;28;20248;-77
2021/01/28 16:19:38;;;;;;;1.80;1.17;;;9.60;99.90;;;;;;5052222;28;20734;-76
2021/01/28 16:22:04;;;;;;;3.20;1.45;;;9.60;99.90;;;;;;5052005;28;20165;-76
2021/01/28 16:24:30;;;;;;;2.03;1.30;;;9.60;99.90;;;;;;5050993;28;20534;-76
2021/01/28 16:26:56;;;;;;;2.20;1.20;;;9.60;99.90;;;;;;5052060;28;20207;-76
2021/01/28 16:29:22;;;;;;;1.60;1.43;;;9.60;99.90;;;;;;5051835;28;20236;-76
2021/01/28 16:31:48;;;;;;;3.40;1.70;;;9.60;99.90;;;;;;5052065;28;20260;-76
2021/01/28 16:34:14;;;;;;;2.03;1.73;;;9.60;99.90;;;;;;5052044;28;20211;-76
2021/01/28 16:36:39;;;;;;;2.90;1.80;;;9.60;99.90;;;;;;5041503;28;20171;-76
2021/01/28 16:39:06;;;;;;;2.50;1.33;;;9.60;99.90;;;;;;5092658;28;20199;-76
2021/01/28 16:41:40;;;;;;;1.90;1.45;;;9.60;99.90;;;;;;5079720;28;20938;-76
2021/01/28 16:44:08;;;;;;;1.80;1.40;;;9.60;99.90;;;;;;5072042;28;20196;-76
2021/01/28 16:46:34;;;;;;;2.05;1.45;;;9.60;99.90;;;;;;5071758;28;20271;-76
2021/01/28 16:48:59;;;;;;;2.00;1.30;;;9.50;99.90;;;;;;5071347;28;20184;-76
2021/01/28 16:51:25;;;;;;;1.85;1.13;;;9.50;99.90;;;;;;5071904;28;20168;-76
2021/01/28 16:53:51;;;;;;;1.40;1.20;;;9.50;99.90;;;;;;5071739;28;20164;-76
2021/01/28 16:56:17;;;;;;;1.70;1.30;;;9.50;99.90;;;;;;5071616;28;20164;-76
2021/01/28 16:58:44;;;;;;;2.10;1.58;;;9.50;99.90;;;;;;5070932;28;20657;-76
2021/01/28 17:01:10;;;;;;;1.73;1.33;;;9.50;99.90;;;;;;5071651;28;20160;-76
2021/01/28 17:03:36;;;;;;;1.20;0.93;;;9.50;99.90;;;;;;5071482;28;20180;-76
2021/01/28 17:06:02;;;;;;;3.47;2.10;;;9.50;99.90;;;;;;5071500;28;20165;-76
2021/01/28 17:08:28;;;;;;;2.77;1.90;;;9.50;99.90;;;;;;5070785;28;20638;-76
2021/01/28 17:10:54;;;;;;;2.97;1.70;;;9.50;99.90;;;;;;5071434;28;20586;-76
2021/01/28 17:13:20;;;;;;;3.90;1.73;;;9.50;99.90;;;;;;5071368;28;20168;-76
2021/01/28 17:15:45;;;;;;;2.33;2.13;;;9.50;99.90;;;;;;5072705;28;20653;-77
2021/01/28 17:18:11;;;;;;;3.03;2.10;;;9.50;99.90;;;;;;5071538;28;20204;-77
2021/01/28 17:20:37;;;;;;;2.10;1.40;;;9.50;99.90;;;;;;5071414;28;20206;-76
2021/01/28 17:23:05;;;;;;;2.27;1.60;;;9.50;99.90;;;;;;5071591;28;20172;-76
2021/01/28 17:25:30;;;;;;;2.45;1.75;;;9.50;99.90;;;;;;5071193;28;20176;-76
2021/01/28 17:27:56;;;;;;;1.93;1.53;;;9.50;99.90;;;;;;5069550;28;20737;-76
2021/01/28 17:30:23;;;;;;;1.37;1.20;;;9.50;99.90;;;;;;5070978;28;20161;-76
2021/01/28 17:32:50;;;;;;;2.35;1.80;;;9.50;99.90;;;;;;5065139;28;20227;-76
2021/01/28 17:35:19;;;;;;;1.90;1.20;;;9.50;99.90;;;;;;5059949;28;20169;-75
2021/01/28 17:37:44;;;;;;;1.65;1.55;;;9.50;99.90;;;;;;5065968;28;20203;-75
2021/01/28 17:40:11;;;;;;;2.97;1.83;;;9.40;99.90;;;;;;5068954;28;20221;-75
2021/01/28 17:42:38;;;;;;;1.77;1.40;;;9.40;99.90;;;;;;5071155;28;20773;-75
2021/01/28 17:45:06;;;;;;;1.50;1.30;;;9.40;99.90;;;;;;5053549;28;20176;-75
2021/01/28 17:47:31;;;;;;;1.90;1.70;;;9.40;99.90;;;;;;5071592;28;20172;-75
2021/01/28 17:49:57;;;;;;;2.13;1.50;;;9.40;99.90;;;;;;5071811;28;20528;-76
2021/01/28 17:52:23;;;;;;;2.27;1.70;;;9.40;99.90;;;;;;5075640;28;20176;-76
2021/01/28 17:54:49;;;;;;;3.73;1.30;;;9.40;99.90;;;;;;5076829;28;20168;-76
2021/01/28 17:57:14;;;;;;;1.90;1.80;;;9.40;99.90;;;;;;5075068;28;20175;-76
2021/01/28 17:59:41;;;;;;;2.30;1.37;;;9.40;99.90;;;;;;5074346;28;20212;-76
2021/01/28 18:02:08;;;;;;;1.65;1.20;;;9.40;99.90;;;;;;5074884;28;20179;-76
2021/01/28 18:04:34;;;;;;;1.80;1.45;;;9.40;99.90;;;;;;5074937;28;20247;-75
2021/01/28 18:07:00;;;;;;;2.20;2.00;;;9.30;99.90;;;;;;5074667;28;20164;-76
2021/01/28 18:09:26;;;;;;;2.45;1.55;;;9.30;99.90;;;;;;5071689;28;20197;-76
2021/01/28 18:11:56;;;;;;;2.10;1.60;;;9.30;99.90;;;;;;5073594;28;20648;-76
2021/01/28 18:14:26;;;;;;;2.30;1.60;;;9.30;99.90;;;;;;5074474;28;20632;-76
2021/01/28 18:16:52;;;;;;;2.13;1.55;;;9.30;99.90;;;;;;5074904;28;20179;-75
2021/01/28 18:19:18;;;;;;;1.80;1.50;;;9.30;99.90;;;;;;5074068;28;20207;-76
2021/01/28 18:21:44;;;;;;;2.97;1.97;;;9.30;99.90;;;;;;5074642;28;20164;-76
2021/01/28 18:24:14;;;;;;;2.67;2.38;;;9.20;99.90;;;;;;5074625;28;20567;-75
2021/01/28 18:26:40;;;;;;;1.83;1.70;;;9.30;99.90;;;;;;5072873;28;20564;-75
2021/01/28 18:29:07;;;;;;;2.20;2.00;;;9.20;99.90;;;;;;5074468;28;20204;-76
2021/01/28 18:31:34;;;;;;;3.13;2.20;;;9.20;99.90;;;;;;5075901;28;20172;-75
2021/01/28 18:34:01;;;;;;;2.63;2.30;;;9.20;99.90;;;;;;5073116;28;20223;-76
2021/01/28 18:36:27;;;;;;;3.22;2.92;;;9.30;99.90;;;;;;5076176;28;20187;-76
2021/01/28 18:38:53;;;;;;;3.10;2.77;;;9.30;99.90;;;;;;5094033;28;20243;-75
2021/01/28 18:41:19;;;;;;;4.33;3.13;;;9.30;99.90;;;;;;5094543;28;20561;-76
2021/01/28 18:43:46;;;;;;;6.32;4.78;;;9.30;99.90;;;;;;5094437;28;20190;-76
2021/01/28 18:46:13;;;;;;;4.03;3.63;;;9.30;99.90;;;;;;5094380;28;20163;-76
2021/01/28 18:48:42;;;;;;;4.43;3.90;;;9.30;99.90;;;;;;5093952;28;20203;-76
2021/01/28 18:51:11;;;;;;;6.10;4.20;;;9.30;99.90;;;;;;5094414;28;20175;-76
2021/01/28 18:53:38;;;;;;;6.47;4.53;;;9.30;99.90;;;;;;5077749;28;20176;-76
2021/01/28 18:56:05;;;;;;;5.50;4.97;;;9.30;99.90;;;;;;5074053;28;20172;-76
2021/01/28 18:58:31;;;;;;;4.63;3.45;;;9.30;99.90;;;;;;5072370;28;20199;-75
2021/01/28 19:00:57;;;;;;;4.20;3.80;;;9.30;99.90;;;;;;5073445;28;20172;-75
2021/01/28 19:03:23;;;;;;;5.77;5.27;;;9.30;99.90;;;;;;5073872;28;20161;-75
2021/01/28 19:05:49;;;;;;;6.57;5.93;;;9.30;99.90;;;;;;5073866;28;21007;-76
2021/01/28 19:08:15;;;;;;;6.40;5.75;;;9.30;99.90;;;;;;5070571;28;20675;-76
2021/01/28 19:10:40;;;;;;;5.37;4.83;;;9.40;99.90;;;;;;5055605;28;20211;-76
2021/01/28 19:13:07;;;;;;;5.83;5.33;;;9.40;99.90;;;;;;5073382;28;20578;-76
2021/01/28 19:15:35;;;;;;;4.30;3.90;;;9.40;99.90;;;;;;5073686;28;20628;-76
2021/01/28 19:18:02;;;;;;;4.82;3.72;;;9.40;99.90;;;;;;5073109;28;20203;-76
2021/01/28 19:20:28;;;;;;;3.45;3.15;;;9.40;99.90;;;;;;5073861;28;20165;-76
2021/01/28 19:22:54;;;;;;;3.50;3.03;;;9.40;99.90;;;;;;5073525;28;20157;-76
2021/01/28 19:25:22;;;;;;;2.78;2.53;;;9.40;99.90;;;;;;5073650;28;20562;-76
2021/01/28 19:27:49;;;;;;;3.42;2.38;;;9.50;99.90;;;;;;5072864;28;20196;-76
2021/01/28 19:30:18;;;;;;;2.95;2.22;;;9.40;99.90;;;;;;5073481;28;20638;-76
2021/01/28 19:32:44;;;;;;;2.20;1.52;;;9.50;99.90;;;;;;5073318;28;20165;-76
2021/01/28 19:35:13;;;;;;;2.15;1.58;;;9.50;99.90;;;;;;5073616;28;20164;-76
2021/01/28 19:37:39;;;;;;;2.50;1.77;;;9.50;99.90;;;;;;5084874;28;20164;-76
2021/01/28 19:40:07;;;;;;;3.65;2.00;;;9.50;99.90;;;;;;5092190;28;20202;-76
2021/01/28 19:42:33;;;;;;;1.98;1.83;;;9.50;99.90;;;;;;5093742;28;20189;-76
2021/01/28 19:44:59;;;;;;;1.67;1.30;;;9.50;99.90;;;;;;5097201;28;20528;-76
2021/01/28 19:47:26;;;;;;;2.55;2.17;;;9.50;99.90;;;;;;5093050;28;20566;-76
2021/01/28 19:49:52;;;;;;;1.97;1.67;;;9.50;99.90;;;;;;5093039;28;20174;-76
2021/01/28 19:52:18;;;;;;;2.00;1.58;;;9.50;99.90;;;;;;5093063;28;20167;-76
2021/01/28 19:54:44;;;;;;;3.38;1.52;;;9.50;99.90;;;;;;5093494;28;20197;-76
2021/01/28 19:57:10;;;;;;;2.33;2.13;;;9.50;99.90;;;;;;5092833;28;20160;-76
2021/01/28 19:59:36;;;;;;;2.37;1.90;;;9.50;99.90;;;;;;5091274;28;20207;-76
2021/01/28 20:02:02;;;;;;;2.63;1.20;;;9.50;99.90;;;;;;5092799;28;20160;-76
2021/01/28 20:04:28;;;;;;;2.47;1.60;;;9.50;99.90;;;;;;5092911;28;20164;-76
2021/01/28 20:06:54;;;;;;;1.40;1.27;;;9.50;99.90;;;;;;5090758;28;21205;-76
2021/01/28 20:09:20;;;;;;;1.90;1.70;;;9.50;99.90;;;;;;5069064;28;20192;-76
2021/01/28 20:11:46;;;;;;;2.10;1.90;;;9.50;99.90;;;;;;5071953;28;21017;-76
2021/01/28 20:14:12;;;;;;;1.90;1.70;;;9.40;99.90;;;;;;5067208;28;20786;-76
2021/01/28 20:17:03;;;;;;;2.80;1.70;;;9.40;99.90;;;;;;5052326;28;20571;-76
2021/01/28 20:19:31;;;;;;;1.97;1.83;;;9.40;99.90;;;;;;5051168;28;20669;-76
2021/01/28 20:21:57;;;;;;;2.63;2.35;;;9.40;99.90;;;;;;5053304;28;20499;-76
2021/01/28 20:24:23;;;;;;;2.00;1.83;;;9.40;99.90;;;;;;5052450;28;20163;-76
2021/01/28 20:26:49;;;;;;;2.20;1.50;;;9.40;99.90;;;;;;5052496;28;20572;-76
2021/01/28 20:29:15;;;;;;;1.88;1.67;;;9.30;99.90;;;;;;5051638;28;20963;-76
2021/01/28 20:31:41;;;;;;;2.63;1.97;;;9.30;99.90;;;;;;5052382;28;20249;-76
2021/01/28 20:34:07;;;;;;;2.23;1.37;;;9.30;99.90;;;;;;5052254;28;20196;-76
2021/01/28 20:36:32;;;;;;;2.13;1.93;;;9.30;99.90;;;;;;5057661;28;20651;-76
2021/01/28 20:38:58;;;;;;;1.27;1.07;;;9.40;99.90;;;;;;5091838;28;20195;-76
2021/01/28 20:41:24;;;;;;;5.00;1.50;;;9.30;99.90;;;;;;5092599;28;20528;-76
2021/01/28 20:43:50;;;;;;;2.08;1.60;;;9.30;99.90;;;;;;5092603;28;20166;-76
2021/01/28 20:46:16;;;;;;;1.77;1.63;;;9.30;99.90;;;;;;5074438;28;20159;-76
2021/01/28 20:48:41;;;;;;;2.03;1.93;;;9.30;99.90;;;;;;5090888;28;20602;-76
2021/01/28 20:51:08;;;;;;;1.53;1.43;;;9.30;99.90;;;;;;5092465;28;20171;-76
2021/01/28 20:53:33;;;;;;;2.08;1.88;;;9.40;99.90;;;;;;5092299;28;20224;-76
2021/01/28 20:55:59;;;;;;;1.80;1.67;;;9.40;99.90;;;;;;5092432;28;20163;-75
2021/01/28 20:58:25;;;;;;;2.60;2.13;;;9.50;99.90;;;;;;5091648;28;20271;-74
2021/01/28 21:00:51;;;;;;;2.20;2.00;;;9.40;99.90;;;;;;5092335;28;21030;-74
2021/01/28 21:03:17;;;;;;;2.30;2.10;;;9.50;99.90;;;;;;5094046;28;20202;-74
2021/01/28 21:05:42;;;;;;;2.77;2.47;;;9.50;99.90;;;;;;5092223;28;20647;-74
2021/01/28 21:08:08;;;;;;;2.80;1.50;;;9.50;99.90;;;;;;5076195;28;20627;-74
2021/01/28 21:10:35;;;;;;;2.20;2.00;;;9.50;99.90;;;;;;5071352;28;20577;-75
2021/01/28 21:13:01;;;;;;;2.70;2.40;;;9.50;99.90;;;;;;5071673;28;20251;-74
2021/01/28 21:15:30;;;;;;;3.00;2.70;;;9.50;99.90;;;;;;5071710;28;20176;-74
2021/01/28 21:17:57;;;;;;;4.35;2.80;;;9.50;99.90;;;;;;5070044;28;20216;-74
2021/01/28 21:20:25;;;;;;;3.13;2.40;;;9.40;99.90;;;;;;5072326;28;20195;-75
2021/01/28 21:22:51;;;;;;;2.20;2.00;;;9.40;99.90;;;;;;5072758;28;20164;-75
2021/01/28 21:25:17;;;;;;;3.67;2.60;;;9.30;99.90;;;;;;5071306;28;20188;-75
2021/01/28 21:27:46;;;;;;;2.60;2.38;;;9.30;99.90;;;;;;5070972;28;20688;-75
2021/01/28 21:30:13;;;;;;;3.08;2.72;;;9.30;99.90;;;;;;5071300;28;20176;-75
2021/01/28 21:32:38;;;;;;;2.00;1.83;;;9.30;99.90;;;;;;5070285;28;20169;-74
2021/01/28 21:35:06;;;;;;;2.30;2.10;;;9.30;99.90;;;;;;5071464;28;20214;-75
2021/01/28 21:37:32;;;;;;;2.72;1.75;;;9.30;99.90;;;;;;5081135;28;20175;-75
2021/01/28 21:39:59;;;;;;;2.50;2.00;;;9.40;99.90;;;;;;5090904;28;20742;-75
2021/01/28 21:42:25;;;;;;;2.90;1.90;;;9.40;99.90;;;;;;5091534;28;20168;-75
2021/01/28 21:44:52;;;;;;;3.05;1.95;;;9.50;99.90;;;;;;5091364;28;20164;-74
2021/01/28 21:47:17;;;;;;;3.05;2.85;;;9.50;99.90;;;;;;5091246;28;20258;-75
2021/01/28 21:49:43;;;;;;;2.23;1.80;;;9.60;99.90;;;;;;5091151;28;20274;-75
2021/01/28 21:52:09;;;;;;;2.55;2.25;;;9.60;99.90;;;;;;5091503;28;20961;-75
2021/01/28 21:54:35;;;;;;;2.80;2.47;;;9.60;99.90;;;;;;5090801;28;20163;-76
2021/01/28 21:57:01;;;;;;;2.10;1.83;;;9.70;99.90;;;;;;5091797;28;20195;-75
2021/01/28 21:59:27;;;;;;;3.20;2.70;;;9.70;99.90;;;;;;5090971;28;20637;-75
2021/01/28 22:01:53;;;;;;;2.77;2.37;;;9.80;99.90;;;;;;5090095;28;20216;-76
2021/01/28 22:04:19;;;;;;;2.33;2.03;;;9.80;99.90;;;;;;5091173;28;20938;-75
2021/01/28 22:06:45;;;;;;;2.07;1.80;;;9.80;99.90;;;;;;5090488;28;20156;-74
2021/01/28 22:09:10;;;;;;;2.43;2.23;;;9.80;99.90;;;;;;5067975;28;20991;-74
2021/01/28 22:11:36;;;;;;;2.80;2.20;;;9.80;99.90;;;;;;5070786;28;20520;-76
2021/01/28 22:14:03;;;;;;;2.60;2.30;;;9.80;99.90;;;;;;5070861;28;20582;-75
2021/01/28 22:16:29;;;;;;;2.28;1.90;;;9.80;99.90;;;;;;5070465;28;20172;-75
2021/01/28 22:18:55;;;;;;;2.58;2.05;;;9.80;99.90;;;;;;5070426;28;20196;-75
2021/01/28 22:21:21;;;;;;;1.83;1.63;;;9.80;99.90;;;;;;5070747;28;20165;-75
2021/01/28 22:23:47;;;;;;;3.10;2.13;;;9.80;99.90;;;;;;5071146;28;20601;-75